createdAt,value
2018-09-14T00:19:13.759Z,11.80
2018-09-14T00:50:32.305Z,10.80
2018-09-14T01:50:35.399Z,17.90
2018-09-14T02:18:58.861Z,13.07
2018-09-14T02:56:02.061Z,15.47
2018-09-14T03:01:26.944Z,13.00
2018-09-14T03:49:59.481Z,13.60
2018-09-14T04:18:23.534Z,12.00
2018-09-14T04:32:24.692Z,17.23
2018-09-14T04:34:54.842Z,19.03
2018-09-14T04:54:41.215Z,15.13
2018-09-14T05:20:11.725Z,20.43
2018-09-14T06:02:57.826Z,22.53
2018-09-14T06:05:29.317Z,22.00
2018-09-14T06:07:58.122Z,21.33
2018-09-14T06:13:26.643Z,27.57
2018-09-14T06:15:57.523Z,25.20
2018-09-14T06:21:21.509Z,29.03
2018-09-14T06:23:54.869Z,30.17
2018-09-14T06:29:30.648Z,29.23
2018-09-14T06:32:00.845Z,26.30
2018-09-14T06:34:29.633Z,28.30
2018-09-14T06:36:58.798Z,29.20
2018-09-14T06:39:27.541Z,27.53
2018-09-14T06:41:56.257Z,32.23
2018-09-14T06:44:25.206Z,30.90
2018-09-14T06:46:54.704Z,31.30
2018-09-14T06:49:23.573Z,29.93
2018-09-14T06:51:52.403Z,34.20
2018-09-14T06:54:21.179Z,34.13
2018-09-14T06:56:49.957Z,33.97
2018-09-14T06:59:18.679Z,32.17
2018-09-14T07:01:47.387Z,38.90
2018-09-14T07:04:16.146Z,42.27
2018-09-14T07:06:44.937Z,42.03
2018-09-14T07:09:13.730Z,42.63
2018-09-14T07:11:42.423Z,44.27
2018-09-14T07:14:11.127Z,43.70
2018-09-14T07:16:39.860Z,42.30
2018-09-14T07:19:08.808Z,44.13
2018-09-14T07:21:37.575Z,48.27
2018-09-14T07:24:07.117Z,48.30
2018-09-14T07:26:35.853Z,47.47
2018-09-14T07:29:06.523Z,47.00
2018-09-14T07:31:35.197Z,41.83
2018-09-14T07:34:03.891Z,40.57
2018-09-14T07:36:32.673Z,38.60
2018-09-14T07:39:02.430Z,40.20
2018-09-14T07:41:31.239Z,39.97
2018-09-14T07:43:59.930Z,35.87
2018-09-14T07:46:28.744Z,37.13
2018-09-14T07:48:57.427Z,44.77
2018-09-14T07:51:26.186Z,41.63
2018-09-14T07:53:54.947Z,40.20
2018-09-14T07:56:24.155Z,41.97
2018-09-14T07:58:53.157Z,39.23
2018-09-14T08:01:22.136Z,38.53
2018-09-14T08:03:50.931Z,41.27
2018-09-14T08:06:19.682Z,42.27
2018-09-14T08:08:48.524Z,37.83
2018-09-14T08:11:17.276Z,42.23
2018-09-14T08:13:46.094Z,39.67
2018-09-14T08:16:14.868Z,36.93
2018-09-14T08:18:43.585Z,38.27
2018-09-14T08:21:12.512Z,41.57
2018-09-14T08:23:41.169Z,35.57
2018-09-14T08:26:11.674Z,36.67
2018-09-14T08:28:40.465Z,41.93
2018-09-14T08:31:09.758Z,31.73
2018-09-14T08:33:38.909Z,26.07
2018-09-14T08:36:07.683Z,28.03
2018-09-14T08:38:36.467Z,26.53
2018-09-14T08:41:05.193Z,26.97
2018-09-14T08:43:33.926Z,24.37
2018-09-14T08:46:02.709Z,26.93
2018-09-14T08:48:31.436Z,26.00
2018-09-14T08:51:00.234Z,26.53
2018-09-14T08:53:29.407Z,30.20
2018-09-14T08:55:58.068Z,29.67
2018-09-14T08:58:26.775Z,31.50
2018-09-14T09:00:55.565Z,28.90
2018-09-14T09:03:24.183Z,30.87
2018-09-14T09:05:52.864Z,27.43
2018-09-14T09:08:21.614Z,31.50
2018-09-14T09:10:50.351Z,31.43
2018-09-14T09:13:19.059Z,33.53
2018-09-14T09:15:47.871Z,34.33
2018-09-14T09:18:16.714Z,39.13
2018-09-14T09:20:45.498Z,34.93
2018-09-14T09:23:15.048Z,36.27
2018-09-14T09:25:43.744Z,41.50
2018-09-14T09:28:12.515Z,34.40
2018-09-14T09:30:41.575Z,30.90
2018-09-14T09:33:10.381Z,28.70
2018-09-14T09:35:39.062Z,33.60
2018-09-14T09:38:07.811Z,32.70
2018-09-14T09:40:36.548Z,30.03
2018-09-14T09:43:05.359Z,33.40
2018-09-14T09:45:33.994Z,30.17
2018-09-14T09:50:55.672Z,28.67
2018-09-14T09:53:24.326Z,26.20
2018-09-14T09:55:53.199Z,24.40
2018-09-14T09:58:21.924Z,23.60
2018-09-14T10:00:55.881Z,23.17
2018-09-14T10:03:29.846Z,27.23
2018-09-14T10:06:03.717Z,22.90
2018-09-14T10:08:32.440Z,21.40
2018-09-14T10:11:01.191Z,18.07
2018-09-14T10:13:29.989Z,20.00
2018-09-14T10:15:58.742Z,25.07
2018-09-14T10:18:27.552Z,19.97
2018-09-14T10:20:56.670Z,23.47
2018-09-14T10:23:25.444Z,21.23
2018-09-14T10:25:54.138Z,19.57
2018-09-14T10:28:22.849Z,21.27
2018-09-14T10:30:51.642Z,18.27
2018-09-14T10:33:21.248Z,18.37
2018-09-14T10:35:50.160Z,21.40
2018-09-14T10:38:19.711Z,16.50
2018-09-14T10:40:48.441Z,17.90
2018-09-14T10:43:17.216Z,19.63
2018-09-14T10:45:46.029Z,17.40
2018-09-14T10:48:14.723Z,15.60
2018-09-14T10:50:43.495Z,17.30
2018-09-14T10:53:12.316Z,15.20
2018-09-14T10:55:41.016Z,14.37
2018-09-14T10:58:09.950Z,14.27
2018-09-14T11:00:38.722Z,16.77
2018-09-14T11:03:07.462Z,16.90
2018-09-14T11:05:36.234Z,11.43
2018-09-14T11:08:04.957Z,13.77
2018-09-14T11:10:33.657Z,13.07
2018-09-14T11:13:02.451Z,14.53
2018-09-14T11:15:31.674Z,13.23
2018-09-14T11:18:00.504Z,13.17
2018-09-14T11:20:29.731Z,15.20
2018-09-14T11:22:58.519Z,13.77
2018-09-14T11:25:27.355Z,9.53
2018-09-14T11:27:56.175Z,11.47
2018-09-14T11:30:26.011Z,15.73
2018-09-14T11:32:54.774Z,11.73
2018-09-14T11:35:24.719Z,12.23
2018-09-14T11:37:53.522Z,13.20
2018-09-14T11:40:27.993Z,10.67
2018-09-14T11:42:56.747Z,14.63
2018-09-14T11:45:28.165Z,11.97
2018-09-14T11:47:57.155Z,10.57
2018-09-14T11:50:27.591Z,11.33
2018-09-14T11:52:56.437Z,8.23
2018-09-14T11:55:26.167Z,8.45
2018-09-14T11:58:01.018Z,10.08
2018-09-14T12:00:33.326Z,10.32
2018-09-14T12:03:03.164Z,8.00
2018-09-14T12:05:32.392Z,8.90
2018-09-14T12:08:02.915Z,8.58
2018-09-14T12:10:37.128Z,9.28
2018-09-14T12:13:07.255Z,10.40
2018-09-14T12:15:35.978Z,10.10
2018-09-14T12:18:04.884Z,7.50
2018-09-14T12:20:33.753Z,13.08
2018-09-14T12:23:03.828Z,8.95
2018-09-14T12:25:38.489Z,9.80
2018-09-14T12:28:10.635Z,6.97
2018-09-14T12:30:39.965Z,12.30
2018-09-14T12:33:10.199Z,11.43
2018-09-14T12:35:40.003Z,11.85
2018-09-14T12:38:08.657Z,10.53
2018-09-14T12:40:37.435Z,12.63
2018-09-14T12:43:06.235Z,10.08
2018-09-14T12:45:35.867Z,12.23
2018-09-14T12:48:05.487Z,11.48
2018-09-14T12:50:34.266Z,11.17
2018-09-14T12:53:03.647Z,8.78
2018-09-14T12:55:32.816Z,11.05
2018-09-14T12:58:01.791Z,10.80
2018-09-14T13:00:31.496Z,11.08
2018-09-14T13:03:00.632Z,12.07
2018-09-14T13:05:31.524Z,10.72
2018-09-14T13:08:00.450Z,8.93
2018-09-14T13:10:29.680Z,9.00
2018-09-14T13:12:58.556Z,10.30
2018-09-14T13:15:27.592Z,11.20
2018-09-14T14:54:02.407Z,8.30
2018-09-14T15:22:32.082Z,11.00
2018-09-14T15:53:49.232Z,6.80
2018-09-14T22:31:57.975Z,8.87
2018-09-14T22:34:30.574Z,4.90
2018-09-14T22:37:00.850Z,11.00
2018-09-14T22:39:33.874Z,7.83
